createdAt,value
2022-08-03T00:00:58.655Z,93050.91
2022-08-03T00:02:31.178Z,93063.41
2022-08-03T00:04:03.218Z,93056.81
2022-08-03T00:05:34.995Z,93054.88
2022-08-03T00:07:07.225Z,93053.72
2022-08-03T00:08:40.367Z,93062.25
2022-08-03T00:10:13.201Z,93060.59
2022-08-03T00:11:45.493Z,93065.13
2022-08-03T00:13:17.373Z,93071.22
2022-08-03T00:14:48.981Z,93063.59
2022-08-03T00:16:20.987Z,93065.84
2022-08-03T00:17:54.858Z,93060.97
2022-08-03T00:19:26.876Z,93060.94
2022-08-03T00:20:58.599Z,93060.13
2022-08-03T00:22:30.281Z,93057.41
2022-08-03T00:24:02.131Z,93059.34
2022-08-03T00:25:37.142Z,93068.22
2022-08-03T00:27:08.836Z,93063.13
2022-08-03T00:28:40.539Z,93059.63
2022-08-03T00:30:12.307Z,93060.34
2022-08-03T00:31:52.500Z,93058.59
2022-08-03T00:33:31.582Z,93055.81
2022-08-03T00:35:36.584Z,93055.88
2022-08-03T00:37:09.093Z,93059.03
2022-08-03T00:38:40.809Z,93057.44
2022-08-03T00:40:12.856Z,93055.06
2022-08-03T00:41:44.501Z,93057.00
2022-08-03T00:43:16.514Z,93054.72
2022-08-03T00:44:48.612Z,93054.72
2022-08-03T00:46:22.892Z,93057.44
2022-08-03T00:47:54.662Z,93053.59
2022-08-03T00:49:34.484Z,93055.88
2022-08-03T00:51:07.447Z,93058.59
2022-08-03T00:52:39.418Z,93052.34
2022-08-03T00:54:11.339Z,93056.22
2022-08-03T00:55:43.080Z,93057.00
2022-08-03T00:57:14.734Z,93048.84
2022-08-03T00:58:46.840Z,93049.28
2022-08-03T01:00:20.157Z,93050.41
2022-08-03T01:01:51.983Z,93054.72
2022-08-03T01:03:23.606Z,93055.88
2022-08-03T01:04:55.983Z,93053.16
2022-08-03T01:07:05.734Z,93049.72
2022-08-03T01:09:01.252Z,93050.16
2022-08-03T01:10:45.040Z,93051.38
2022-08-03T01:12:33.269Z,93047.00
2022-08-03T01:14:18.934Z,93047.69
2022-08-03T01:16:09.721Z,93053.50
2022-08-03T01:17:47.442Z,93045.72
2022-08-03T01:19:24.963Z,93051.50
2022-08-03T01:20:56.972Z,93059.25
2022-08-03T01:22:50.192Z,93047.47
2022-08-03T01:24:21.781Z,93046.63
2022-08-03T01:25:54.570Z,93052.41
2022-08-03T01:27:27.684Z,93053.13
2022-08-03T01:29:02.398Z,93049.16
2022-08-03T01:30:34.083Z,93050.59
2022-08-03T01:33:03.119Z,93047.00
2022-08-03T01:34:06.412Z,93048.41
2022-08-03T01:35:43.226Z,93052.97
2022-08-03T01:37:17.236Z,93058.34
2022-08-03T01:38:53.719Z,93048.19
2022-08-03T01:40:26.148Z,93047.72
2022-08-03T01:41:59.547Z,93049.56
2022-08-03T01:44:03.005Z,93047.91
2022-08-03T01:45:22.706Z,93052.47
2022-08-03T01:46:54.646Z,93054.06
2022-08-03T01:48:26.454Z,93056.66
2022-08-03T01:49:58.613Z,93049.13
2022-08-03T01:52:03.654Z,93050.16
2022-08-03T01:53:22.114Z,93049.72
2022-08-03T01:54:53.746Z,93052.78
2022-08-03T01:56:25.333Z,93049.66
2022-08-03T01:58:04.615Z,93051.13
2022-08-03T01:59:37.957Z,93047.53
2022-08-03T02:01:09.670Z,93054.91
2022-08-03T02:02:41.604Z,93050.25
2022-08-03T02:04:14.125Z,93053.66
2022-08-03T02:05:46.102Z,93045.78
2022-08-03T02:07:17.680Z,93055.44
2022-08-03T02:08:49.243Z,93051.91
2022-08-03T02:10:34.366Z,93058.94
2022-08-03T02:12:08.524Z,93055.69
2022-08-03T02:13:40.072Z,93052.09
2022-08-03T02:15:13.177Z,93051.75
2022-08-03T02:16:46.385Z,93046.66
2022-08-03T02:18:18.451Z,93042.00
2022-08-03T02:19:50.139Z,93040.75
2022-08-03T02:21:57.042Z,93044.97
2022-08-03T02:23:15.546Z,93048.03
2022-08-03T02:24:49.365Z,93046.47
2022-08-03T02:26:22.837Z,93045.59
2022-08-03T02:28:02.096Z,93046.63
2022-08-03T02:29:39.102Z,93042.25
2022-08-03T02:31:23.861Z,93042.59
2022-08-03T02:32:55.985Z,93043.44
2022-08-03T02:34:27.553Z,93041.19
2022-08-03T02:35:59.109Z,93037.31
2022-08-03T02:37:31.822Z,93044.34
2022-08-03T02:39:05.309Z,93035.28
2022-08-03T02:40:36.938Z,93040.72
2022-08-03T02:42:09.057Z,93041.19
2022-08-03T02:44:06.322Z,93045.13
2022-08-03T02:45:32.524Z,93044.78
2022-08-03T02:47:05.284Z,93045.59
2022-08-03T02:48:36.970Z,93044.44
2022-08-03T02:50:12.303Z,93046.38
2022-08-03T02:51:44.030Z,93041.72
2022-08-03T02:53:15.764Z,93046.72
2022-08-03T02:54:47.551Z,93043.91
2022-08-03T02:56:19.344Z,93039.97
2022-08-03T02:57:51.203Z,93042.94
2022-08-03T02:59:22.803Z,93044.50
2022-08-03T03:00:54.441Z,93042.13
2022-08-03T03:02:26.345Z,93046.34
2022-08-03T03:03:58.145Z,93042.81
2022-08-03T03:05:53.174Z,93036.53
2022-08-03T03:07:21.872Z,93035.53
2022-08-03T03:08:57.900Z,93044.72
2022-08-03T03:10:31.458Z,93039.63
2022-08-03T03:12:03.093Z,93041.56
2022-08-03T03:13:34.651Z,93039.50
2022-08-03T03:15:06.866Z,93042.13
2022-08-03T03:16:38.522Z,93041.78
2022-08-03T03:18:10.366Z,93040.97
2022-08-03T03:19:42.102Z,93043.34
2022-08-03T03:21:14.282Z,93046.78
2022-08-03T03:22:45.924Z,93051.44
2022-08-03T03:24:17.507Z,93050.53
2022-08-03T03:25:49.512Z,93044.66
2022-08-03T03:27:21.265Z,93044.66
2022-08-03T03:28:54.873Z,93051.31
2022-08-03T03:30:26.675Z,93050.63
2022-08-03T03:31:58.212Z,93050.72
2022-08-03T03:33:36.010Z,93051.50
2022-08-03T03:35:08.133Z,93053.78
2022-08-03T03:36:39.764Z,93048.59
2022-08-03T03:38:12.185Z,93052.81
2022-08-03T03:39:44.587Z,93056.75
2022-08-03T03:41:16.163Z,93055.97
2022-08-03T03:42:47.859Z,93060.59
2022-08-03T03:44:19.478Z,93064.81
2022-08-03T03:45:51.838Z,93063.03
2022-08-03T03:47:32.301Z,93063.25
2022-08-03T03:49:05.640Z,93061.78
2022-08-03T03:50:37.767Z,93064.94
2022-08-03T03:52:09.548Z,93073.44
2022-08-03T03:53:41.185Z,93071.78
2022-08-03T03:55:15.594Z,93070.19
2022-08-03T03:56:47.298Z,93080.69
2022-08-03T03:58:19.179Z,93075.25
2022-08-03T03:59:50.911Z,93085.38
2022-08-03T04:01:22.596Z,93085.69
2022-08-03T04:02:54.285Z,93084.19
2022-08-03T04:04:44.369Z,93082.72
2022-08-03T04:06:45.313Z,93083.53
2022-08-03T04:08:35.754Z,93086.53
2022-08-03T04:10:29.596Z,93084.13
2022-08-03T04:12:01.262Z,93084.44
2022-08-03T04:13:37.401Z,93082.41
2022-08-03T04:15:09.247Z,93085.75
2022-08-03T04:16:46.630Z,93082.19
2022-08-03T04:18:18.322Z,93081.31
2022-08-03T04:19:51.516Z,93086.59
2022-08-03T04:21:23.731Z,93079.50
2022-08-03T04:22:55.340Z,93083.16
2022-08-03T04:24:27.965Z,93081.84
2022-08-03T04:25:59.766Z,93079.81
2022-08-03T04:27:33.486Z,93089.81
2022-08-03T04:29:05.607Z,93085.41
2022-08-03T04:30:37.912Z,93089.88
2022-08-03T04:32:09.815Z,93089.03
2022-08-03T04:33:41.495Z,93083.06
2022-08-03T04:35:13.399Z,93077.75
2022-08-03T04:36:46.114Z,93082.72
2022-08-03T04:38:18.600Z,93084.94
2022-08-03T04:39:50.348Z,93080.03
2022-08-03T04:41:22.509Z,93087.66
2022-08-03T04:42:54.274Z,93081.94
2022-08-03T04:44:28.368Z,93083.72
2022-08-03T04:46:00.555Z,93088.28
2022-08-03T04:47:35.582Z,93087.78
2022-08-03T04:49:07.953Z,93091.81
2022-08-03T04:50:39.533Z,93086.34
2022-08-03T04:52:11.250Z,93087.06
2022-08-03T04:53:43.871Z,93091.22
2022-08-03T04:55:31.952Z,93091.09
2022-08-03T04:57:03.780Z,93100.28
2022-08-03T04:58:35.531Z,93090.34
2022-08-03T05:00:07.476Z,93094.81
2022-08-03T05:01:42.753Z,93093.38
2022-08-03T05:03:23.679Z,93102.03
2022-08-03T05:04:56.249Z,93104.53
2022-08-03T05:06:28.012Z,93098.06
2022-08-03T05:08:00.771Z,93097.44
2022-08-03T05:09:49.803Z,93097.69
2022-08-03T05:11:22.056Z,93104.94
2022-08-03T05:12:54.124Z,93093.78
2022-08-03T05:14:28.285Z,93103.31
2022-08-03T05:16:00.148Z,93110.88
2022-08-03T05:17:31.811Z,93105.56
2022-08-03T05:19:04.006Z,93109.97
2022-08-03T05:20:35.577Z,93113.59
2022-08-03T05:22:07.394Z,93113.91
2022-08-03T05:23:39.202Z,93114.03
2022-08-03T05:25:19.099Z,93113.13
2022-08-03T05:26:52.774Z,93116.38
2022-08-03T05:28:24.513Z,93116.72
2022-08-03T05:29:56.224Z,93126.44
2022-08-03T05:31:48.123Z,93115.41
2022-08-03T05:33:19.768Z,93121.28
2022-08-03T05:34:51.539Z,93121.28
2022-08-03T05:36:23.362Z,93119.53
2022-08-03T05:37:55.295Z,93121.69
2022-08-03T05:39:27.010Z,93116.75
2022-08-03T05:41:22.507Z,93115.59
2022-08-03T05:42:50.478Z,93116.06
2022-08-03T05:44:22.422Z,93118.03
2022-08-03T05:46:11.467Z,93122.47
2022-08-03T05:47:44.894Z,93123.44
2022-08-03T05:49:16.611Z,93128.69
2022-08-03T05:50:48.542Z,93129.19
2022-08-03T05:52:20.399Z,93127.63
2022-08-03T05:53:52.494Z,93127.72
2022-08-03T05:55:24.183Z,93136.47
2022-08-03T05:56:58.177Z,93135.44
2022-08-03T05:58:30.053Z,93136.03
2022-08-03T06:00:05.302Z,93135.78
2022-08-03T06:01:37.982Z,93133.06
2022-08-03T06:03:09.768Z,93135.88
2022-08-03T06:04:41.921Z,93136.72
2022-08-03T06:06:13.708Z,93132.56
2022-08-03T06:07:45.313Z,93135.03
2022-08-03T06:09:17.887Z,93139.38
2022-08-03T06:10:49.974Z,93146.50
2022-08-03T06:12:21.653Z,93145.31
2022-08-03T06:13:53.276Z,93144.56
2022-08-03T06:15:25.291Z,93141.03
2022-08-03T06:16:57.071Z,93135.25
2022-08-03T06:18:28.975Z,93142.38
2022-08-03T06:20:00.885Z,93136.16
2022-08-03T06:21:33.839Z,93146.09
2022-08-03T06:23:07.483Z,93135.59
2022-08-03T06:24:39.363Z,93138.00
2022-08-03T06:26:25.046Z,93135.66
2022-08-03T06:27:57.110Z,93138.44
2022-08-03T06:29:28.832Z,93143.16
2022-08-03T06:43:14.324Z,93142.59
2022-08-03T06:44:47.709Z,93144.16
2022-08-03T06:46:19.545Z,93132.75
2022-08-03T06:48:07.478Z,93146.13
2022-08-03T06:49:40.237Z,93146.13
2022-08-03T06:51:12.054Z,93146.16
2022-08-03T06:52:44.184Z,93146.94
2022-08-03T06:54:15.893Z,93143.00
2022-08-03T06:55:52.429Z,93146.53
2022-08-03T06:57:26.141Z,93149.25
2022-08-03T06:58:57.997Z,93144.13
2022-08-03T07:00:31.064Z,93138.53
2022-08-03T07:02:03.210Z,93142.00
2022-08-03T07:03:35.278Z,93135.66
2022-08-03T07:05:08.257Z,93139.50
2022-08-03T07:06:40.093Z,93137.53
2022-08-03T07:08:11.751Z,93139.44
2022-08-03T07:09:54.968Z,93144.25
2022-08-03T07:11:29.730Z,93137.88
2022-08-03T07:13:01.802Z,93142.13
2022-08-03T07:14:33.865Z,93131.41
2022-08-03T07:16:05.955Z,93135.69
2022-08-03T07:17:37.849Z,93137.19
2022-08-03T07:19:09.626Z,93136.31
2022-08-03T07:20:41.804Z,93140.16
2022-08-03T07:22:13.643Z,93140.41
2022-08-03T07:23:45.538Z,93142.28
2022-08-03T07:25:17.754Z,93138.72
2022-08-03T07:26:49.517Z,93138.66
2022-08-03T07:28:21.829Z,93133.94
2022-08-03T07:29:54.153Z,93139.34
2022-08-03T07:31:25.753Z,93138.94
2022-08-03T07:32:58.178Z,93143.19
2022-08-03T07:34:30.238Z,93137.22
2022-08-03T07:36:01.904Z,93133.22
2022-08-03T07:37:33.987Z,93144.25
2022-08-03T07:39:17.761Z,93135.84
2022-08-03T07:40:49.851Z,93134.06
2022-08-03T07:42:23.156Z,93137.44
2022-08-03T07:43:55.464Z,93135.38
2022-08-03T07:45:27.314Z,93139.25
2022-08-03T07:46:59.129Z,93137.19
2022-08-03T07:48:35.091Z,93131.44
2022-08-03T07:50:08.711Z,93132.59
2022-08-03T07:51:40.734Z,93134.16
2022-08-03T07:53:12.438Z,93137.59
2022-08-03T07:54:44.299Z,93136.34
2022-08-03T07:56:17.036Z,93131.53
2022-08-03T07:57:59.530Z,93139.31
2022-08-03T08:00:01.717Z,93135.13
2022-08-03T08:01:24.453Z,93139.28
2022-08-03T08:02:56.857Z,93132.75
2022-08-03T08:04:30.085Z,93140.94
2022-08-03T08:06:02.518Z,93136.84
2022-08-03T08:07:35.000Z,93132.00
2022-08-03T08:09:07.037Z,93133.78
2022-08-03T08:10:38.687Z,93134.84
2022-08-03T08:12:15.548Z,93137.50
2022-08-03T08:13:47.843Z,93135.50
2022-08-03T08:15:19.747Z,93136.94
2022-08-03T08:16:51.910Z,93132.88
2022-08-03T08:18:24.396Z,93139.84
2022-08-03T08:19:56.993Z,93144.03
2022-08-03T08:21:54.066Z,93145.19
2022-08-03T08:23:44.173Z,93137.28
2022-08-03T08:25:17.307Z,93133.72
2022-08-03T08:26:51.289Z,93132.47
2022-08-03T08:28:32.639Z,93130.72
2022-08-03T08:30:11.502Z,93140.56
2022-08-03T08:31:44.802Z,93130.59
2022-08-03T08:33:23.317Z,93141.56
2022-08-03T08:34:55.685Z,93137.44
2022-08-03T08:36:27.476Z,93135.16
2022-08-03T08:38:01.301Z,93132.16
2022-08-03T08:39:38.235Z,93141.47
2022-08-03T08:41:10.738Z,93138.03
2022-08-03T08:42:56.535Z,93133.00
2022-08-03T08:44:30.908Z,93132.72
2022-08-03T08:46:02.647Z,93133.81
2022-08-03T08:47:51.174Z,93142.75
2022-08-03T08:49:25.109Z,93140.56
2022-08-03T08:50:57.253Z,93139.22
2022-08-03T08:52:31.977Z,93129.44
2022-08-03T08:54:04.513Z,93137.84
2022-08-03T08:55:56.938Z,93133.97
2022-08-03T08:57:42.826Z,93132.44
2022-08-03T08:59:15.209Z,93132.56
2022-08-03T09:00:48.625Z,93126.22
2022-08-03T09:02:20.378Z,93124.59
2022-08-03T09:03:54.329Z,93129.28
2022-08-03T09:05:54.653Z,93125.28
2022-08-03T09:07:20.323Z,93128.75
2022-08-03T09:08:52.543Z,93132.69
2022-08-03T09:10:24.488Z,93127.56
2022-08-03T09:12:13.734Z,93131.84
2022-08-03T09:13:48.232Z,93127.16
2022-08-03T09:15:20.384Z,93130.28
2022-08-03T09:17:00.687Z,93123.53
2022-08-03T09:18:33.986Z,93130.53
2022-08-03T09:20:07.561Z,93136.38
2022-08-03T09:21:39.178Z,93133.13
2022-08-03T09:23:51.882Z,93126.34
2022-08-03T09:25:24.392Z,93127.00
2022-08-03T09:26:56.730Z,93125.94
2022-08-03T09:28:59.704Z,93118.94
2022-08-03T09:30:34.660Z,93122.88
2022-08-03T09:32:07.022Z,93116.25
2022-08-03T09:33:47.802Z,93122.00
2022-08-03T09:35:33.102Z,93119.44
2022-08-03T09:37:15.867Z,93123.34
2022-08-03T09:39:01.014Z,93121.31
2022-08-03T09:40:37.156Z,93121.19
2022-08-03T09:42:09.996Z,93130.63
2022-08-03T09:43:48.041Z,93121.44
2022-08-03T09:45:26.096Z,93117.72
2022-08-03T09:46:57.911Z,93117.03
2022-08-03T09:48:30.699Z,93118.81
2022-08-03T09:50:03.197Z,93113.97
2022-08-03T09:52:37.637Z,93118.88
2022-08-03T09:53:26.780Z,93123.13
2022-08-03T09:54:58.976Z,93111.81
2022-08-03T09:56:47.164Z,93110.84
2022-08-03T09:58:19.857Z,93107.13
2022-08-03T09:59:55.991Z,93112.91
2022-08-03T10:01:38.352Z,93105.47
2022-08-03T10:03:10.130Z,93111.34
2022-08-03T10:04:47.896Z,93106.00
2022-08-03T10:06:19.822Z,93098.13
2022-08-03T10:07:51.647Z,93102.34
2022-08-03T10:09:23.390Z,93098.50
2022-08-03T10:10:55.174Z,93098.97
2022-08-03T10:12:27.042Z,93098.25
2022-08-03T10:14:01.452Z,93084.66
2022-08-03T10:16:23.071Z,93089.25
2022-08-03T10:17:25.300Z,93088.00
2022-08-03T10:18:57.930Z,93089.22
2022-08-03T10:20:29.699Z,93092.25
2022-08-03T10:22:05.757Z,93090.34
2022-08-03T10:23:38.465Z,93090.41
2022-08-03T10:25:12.068Z,93090.63
2022-08-03T10:26:50.014Z,93084.47
2022-08-03T10:28:22.067Z,93092.44
2022-08-03T10:29:54.891Z,93087.22
2022-08-03T10:31:26.702Z,93095.78
2022-08-03T10:33:03.111Z,93089.50
2022-08-03T10:34:35.966Z,93086.81
2022-08-03T10:36:07.921Z,93087.03
2022-08-03T10:37:56.575Z,93079.75
2022-08-03T10:39:29.533Z,93084.63
2022-08-03T10:41:01.393Z,93086.59
2022-08-03T10:42:33.188Z,93077.13
2022-08-03T10:44:15.911Z,93078.03
2022-08-03T10:45:47.735Z,93078.59
2022-08-03T10:47:19.855Z,93077.50
2022-08-03T10:48:52.853Z,93075.78
2022-08-03T10:50:25.413Z,93079.53
2022-08-03T10:51:57.122Z,93084.63
2022-08-03T10:53:35.906Z,93078.28
2022-08-03T10:55:46.469Z,93073.69
2022-08-03T10:57:38.443Z,93075.72
2022-08-03T10:59:10.596Z,93073.63
2022-08-03T11:00:49.498Z,93073.88
2022-08-03T11:02:21.776Z,93082.03
2022-08-03T11:03:53.710Z,93071.81
2022-08-03T11:05:26.010Z,93065.91
2022-08-03T11:07:16.920Z,93063.13
2022-08-03T11:08:55.564Z,93067.28
2022-08-03T11:10:30.544Z,93062.31
2022-08-03T11:12:02.564Z,93057.97
2022-08-03T11:13:35.046Z,93056.78
2022-08-03T11:15:07.453Z,93061.47
2022-08-03T11:16:41.348Z,93059.91
2022-08-03T11:18:13.418Z,93054.94
2022-08-03T11:19:57.607Z,93066.88
2022-08-03T11:21:52.506Z,93058.63
2022-08-03T11:24:03.357Z,93055.13
2022-08-03T11:25:55.393Z,93063.97
2022-08-03T11:27:29.130Z,93057.06
2022-08-03T11:29:19.273Z,93054.06
2022-08-03T11:30:51.088Z,93056.63
2022-08-03T11:32:39.031Z,93058.31
2022-08-03T11:34:11.354Z,93056.91
2022-08-03T11:35:59.795Z,93062.56
2022-08-03T11:51:47.240Z,93054.59
2022-08-03T11:53:19.144Z,93060.53
2022-08-03T11:54:56.738Z,93056.66
2022-08-03T11:56:29.166Z,93049.94
2022-08-03T11:59:17.368Z,93052.44
2022-08-03T11:59:52.935Z,93054.53
2022-08-03T12:01:24.960Z,93053.78
2022-08-03T12:03:01.494Z,93051.53
2022-08-03T12:04:49.331Z,93045.00
2022-08-03T12:06:21.221Z,93052.31
2022-08-03T12:08:03.151Z,93047.34
2022-08-03T12:09:42.090Z,93053.41
2022-08-03T12:11:14.519Z,93051.63
2022-08-03T12:12:46.889Z,93048.13
2022-08-03T12:14:48.686Z,93054.53
2022-08-03T12:16:12.363Z,93051.50
2022-08-03T12:17:44.291Z,93041.72
2022-08-03T12:19:16.464Z,93035.50
2022-08-03T12:20:48.736Z,93043.44
2022-08-03T12:22:31.809Z,93032.84
2022-08-03T12:24:04.722Z,93042.69
2022-08-03T12:25:38.533Z,93041.53
2022-08-03T12:27:11.943Z,93040.38
2022-08-03T12:28:50.262Z,93042.72
2022-08-03T12:30:24.356Z,93042.31
2022-08-03T12:31:56.530Z,93041.91
2022-08-03T12:33:29.337Z,93041.50
2022-08-03T12:35:02.300Z,93047.38
2022-08-03T12:36:35.297Z,93048.09
2022-08-03T12:38:07.031Z,93043.31
2022-08-03T12:40:00.594Z,93049.56
2022-08-03T12:41:37.583Z,93048.72
2022-08-03T12:43:14.426Z,93044.72
2022-08-03T12:44:46.822Z,93043.91
2022-08-03T12:46:48.207Z,93039.16
2022-08-03T12:48:23.443Z,93045.06
2022-08-03T12:49:59.828Z,93040.72
2022-08-03T12:51:33.347Z,93043.41
2022-08-03T12:53:08.788Z,93036.34
2022-08-03T12:54:44.617Z,93034.75
2022-08-03T12:56:19.856Z,93041.06
2022-08-03T12:57:52.229Z,93035.16
2022-08-03T12:59:34.759Z,93031.97
2022-08-03T13:01:10.785Z,93033.94
2022-08-03T13:02:56.461Z,93037.88
2022-08-03T13:04:41.744Z,93044.19
2022-08-03T13:06:17.599Z,93040.25
2022-08-03T13:07:50.752Z,93034.28
2022-08-03T13:09:24.086Z,93035.84
2022-08-03T13:10:56.969Z,93041.38
2022-08-03T13:12:32.451Z,93042.22
2022-08-03T13:14:05.727Z,93032.84
2022-08-03T13:15:47.710Z,93028.16
2022-08-03T13:17:21.593Z,93034.94
2022-08-03T13:18:55.702Z,93035.81
2022-08-03T13:20:29.042Z,93042.22
2022-08-03T13:22:04.042Z,93029.66
2022-08-03T13:23:37.716Z,93038.38
2022-08-03T13:25:10.007Z,93039.97
2022-08-03T13:26:42.356Z,93040.38
2022-08-03T13:28:14.581Z,93027.03
2022-08-03T13:29:48.507Z,93033.28
2022-08-03T13:31:21.493Z,93038.38
2022-08-03T13:32:53.710Z,93031.66
2022-08-03T13:34:26.698Z,93032.41
2022-08-03T13:35:59.310Z,93035.88
2022-08-03T13:37:32.797Z,93030.69
2022-08-03T13:39:04.966Z,93030.22
2022-08-03T13:40:42.314Z,93028.97
2022-08-03T13:42:15.146Z,93039.56
2022-08-03T13:43:47.454Z,93027.69
2022-08-03T13:45:19.260Z,93030.00
2022-08-03T13:46:50.946Z,93030.78
2022-08-03T13:48:35.934Z,93033.50
2022-08-03T13:50:09.572Z,93029.16
2022-08-03T13:51:41.807Z,93029.53
2022-08-03T13:53:13.758Z,93032.66
2022-08-03T13:54:46.244Z,93030.28
2022-08-03T13:56:20.622Z,93028.22
2022-08-03T13:58:04.846Z,93027.38
2022-08-03T13:59:39.102Z,93030.88
2022-08-03T14:01:13.445Z,93024.66
2022-08-03T14:02:48.199Z,93026.69
2022-08-03T14:04:22.282Z,93021.25
2022-08-03T14:05:54.635Z,93017.69
2022-08-03T14:07:26.900Z,93020.06
2022-08-03T14:09:00.673Z,93017.69
2022-08-03T14:10:33.436Z,93023.88
2022-08-03T14:12:09.028Z,93024.16
2022-08-03T14:13:41.313Z,93027.25
2022-08-03T14:15:13.865Z,93034.59
2022-08-03T14:16:45.516Z,93038.06
2022-08-03T14:18:28.305Z,93041.56
2022-08-03T14:20:25.931Z,93032.00
2022-08-03T14:22:06.593Z,93035.00
2022-08-03T14:23:39.063Z,93035.78
2022-08-03T14:25:11.188Z,93036.59
2022-08-03T14:26:45.553Z,93026.84
2022-08-03T14:28:17.475Z,93028.44
2022-08-03T14:29:49.189Z,93027.28
2022-08-03T14:32:11.640Z,93027.22
2022-08-03T14:33:12.823Z,93032.63
2022-08-03T14:34:45.302Z,93027.88
2022-08-03T14:36:17.454Z,93037.34
2022-08-03T14:37:49.762Z,93027.94
2022-08-03T14:39:21.691Z,93028.81
2022-08-03T14:40:53.498Z,93022.22
2022-08-03T14:42:25.183Z,93027.84
2022-08-03T14:44:01.695Z,93026.63
2022-08-03T14:45:34.565Z,93021.03
2022-08-03T14:47:06.378Z,93026.09
2022-08-03T14:50:30.174Z,93030.41
2022-08-03T14:50:41.661Z,93021.72
2022-08-03T14:52:16.736Z,93022.50
2022-08-03T14:53:49.051Z,93032.75
2022-08-03T14:55:22.181Z,93028.78
2022-08-03T14:56:54.912Z,93022.06
2022-08-03T14:58:27.154Z,93028.03
2022-08-03T14:59:58.831Z,93026.16
2022-08-03T15:02:03.057Z,93021.84
2022-08-03T15:03:25.712Z,93022.31
2022-08-03T15:04:57.312Z,93022.22
2022-08-03T15:06:28.902Z,93021.72
2022-08-03T15:08:00.575Z,93023.63
2022-08-03T15:09:32.396Z,93019.97
2022-08-03T15:11:04.017Z,93021.00
2022-08-03T15:12:36.610Z,93014.13
2022-08-03T15:14:09.563Z,93006.88
2022-08-03T15:15:42.172Z,93015.47
2022-08-03T15:17:14.083Z,93009.63
2022-08-03T15:18:46.310Z,93015.56
2022-08-03T15:20:28.727Z,93015.63
2022-08-03T15:22:08.477Z,93013.78
2022-08-03T15:23:40.987Z,93017.44
2022-08-03T15:26:28.282Z,93019.09
2022-08-03T15:27:06.419Z,93018.03
2022-08-03T15:28:38.463Z,93019.75
2022-08-03T15:30:10.999Z,93021.41
2022-08-03T15:31:43.120Z,93021.47
2022-08-03T15:33:14.821Z,93016.03
2022-08-03T15:34:50.285Z,93021.91
2022-08-03T15:36:22.718Z,93014.03
2022-08-03T15:37:54.461Z,93013.69
2022-08-03T15:39:26.212Z,93021.28
2022-08-03T15:40:59.267Z,93018.97
2022-08-03T15:42:31.011Z,93021.00
2022-08-03T15:44:07.473Z,93017.44
2022-08-03T15:45:42.241Z,93019.88
2022-08-03T15:47:14.036Z,93019.47
2022-08-03T15:48:45.718Z,93024.97
2022-08-03T15:50:18.104Z,93021.06
2022-08-03T15:51:50.199Z,93021.13
2022-08-03T15:53:22.568Z,93027.81
2022-08-03T15:54:54.212Z,93027.38
2022-08-03T15:56:27.234Z,93024.59
2022-08-03T15:59:03.504Z,93022.63
2022-08-03T15:59:51.236Z,93024.97
2022-08-03T16:01:23.621Z,93022.19
2022-08-03T16:02:55.798Z,93022.97
2022-08-03T16:04:28.491Z,93021.50
2022-08-03T16:06:01.706Z,93027.00
2022-08-03T16:08:02.853Z,93027.75
2022-08-03T16:09:43.213Z,93030.50
2022-08-03T16:11:16.357Z,93027.81
2022-08-03T16:12:49.070Z,93034.91
2022-08-03T16:14:32.099Z,93040.75
2022-08-03T16:16:10.102Z,93035.53
2022-08-03T16:17:41.891Z,93042.22
2022-08-03T16:19:14.045Z,93037.88
2022-08-03T16:20:45.794Z,93043.78
2022-08-03T16:22:22.891Z,93049.69
2022-08-03T16:23:54.883Z,93045.75
2022-08-03T16:25:27.939Z,93056.09
2022-08-03T16:27:00.459Z,93049.84
2022-08-03T16:28:34.335Z,93055.75
2022-08-03T16:30:06.388Z,93052.28
2022-08-03T16:31:39.270Z,93053.06
2022-08-03T16:33:22.705Z,93048.31
2022-08-03T16:34:54.658Z,93045.59
2022-08-03T16:36:27.142Z,93052.31
2022-08-03T16:38:09.763Z,93045.28
2022-08-03T16:39:42.859Z,93045.69
2022-08-03T16:41:14.460Z,93041.75
2022-08-03T16:42:46.309Z,93040.59
2022-08-03T16:44:17.978Z,93043.75
2022-08-03T16:45:49.646Z,93048.13
2022-08-03T16:47:21.731Z,93047.38
2022-08-03T16:48:54.339Z,93043.91
2022-08-03T16:50:26.311Z,93052.66
2022-08-03T16:51:57.976Z,93050.38
2022-08-03T16:53:33.512Z,93047.31
2022-08-03T16:55:48.523Z,93055.59
2022-08-03T16:57:14.674Z,93047.72
2022-08-03T16:58:50.370Z,93052.09
2022-08-03T17:00:34.162Z,93054.09
2022-08-03T17:02:10.173Z,93056.88
2022-08-03T17:04:01.201Z,93060.81
2022-08-03T17:05:46.912Z,93061.63
2022-08-03T17:07:19.845Z,93058.16
2022-08-03T17:08:55.448Z,93058.59
2022-08-03T17:10:27.495Z,93065.75
2022-08-03T17:11:59.353Z,93063.03
2022-08-03T17:13:40.011Z,93063.84
2022-08-03T17:15:12.111Z,93071.72
2022-08-03T17:16:52.802Z,93069.75
2022-08-03T17:18:25.872Z,93069.75
2022-08-03T17:19:58.039Z,93077.25
2022-08-03T17:21:32.473Z,93066.59
2022-08-03T17:23:34.083Z,93062.31
2022-08-03T17:25:08.499Z,93071.38
2022-08-03T17:26:44.668Z,93068.25
2022-08-03T17:28:49.149Z,93067.84
2022-08-03T17:30:12.142Z,93074.97
2022-08-03T17:31:49.022Z,93067.91
2022-08-03T17:33:21.816Z,93073.84
2022-08-03T17:34:53.603Z,93073.84
2022-08-03T17:36:41.813Z,93073.41
2022-08-03T17:38:17.487Z,93067.91
2022-08-03T17:39:59.584Z,93066.78
2022-08-03T17:41:34.174Z,93061.28
2022-08-03T17:43:44.351Z,93068.31
2022-08-03T17:44:58.206Z,93064.41
2022-08-03T17:46:34.673Z,93060.47
2022-08-03T17:48:06.548Z,93061.66
2022-08-03T17:49:39.832Z,93062.41
2022-08-03T17:51:35.223Z,93061.63
2022-08-03T17:53:23.919Z,93062.03
2022-08-03T17:55:56.991Z,93062.81
2022-08-03T17:57:21.944Z,93062.00
2022-08-03T17:59:12.260Z,93061.59
2022-08-03T18:01:03.015Z,93056.09
2022-08-03T18:03:05.773Z,93064.72
2022-08-03T18:04:40.630Z,93061.56
2022-08-03T18:06:13.340Z,93061.56
2022-08-03T18:08:02.433Z,93060.34
2022-08-03T18:10:03.252Z,93065.06
2022-08-03T18:11:35.534Z,93066.63
2022-08-03T18:13:14.066Z,93060.34
2022-08-03T18:14:57.895Z,93067.38
2022-08-03T18:16:40.017Z,93072.84
2022-08-03T18:18:11.768Z,93072.84
2022-08-03T18:20:03.506Z,93072.88
2022-08-03T18:22:02.659Z,93074.81
2022-08-03T18:23:37.382Z,93086.19
2022-08-03T18:25:10.128Z,93078.34
2022-08-03T18:26:48.553Z,93080.28
2022-08-03T18:28:23.295Z,93093.25
2022-08-03T18:29:55.330Z,93086.19
2022-08-03T18:31:59.920Z,93079.13
2022-08-03T18:34:17.563Z,93086.19
2022-08-03T18:35:13.777Z,93083.03
2022-08-03T18:36:48.664Z,93087.72
2022-08-03T18:38:20.493Z,93091.22
2022-08-03T18:39:57.914Z,93093.94
2022-08-03T18:41:33.736Z,93089.56
2022-08-03T18:43:09.779Z,93089.19
2022-08-03T18:44:54.108Z,93096.63
2022-08-03T18:46:28.691Z,93095.06
2022-08-03T18:48:07.824Z,93093.47
2022-08-03T18:49:45.051Z,93101.31
2022-08-03T18:51:28.644Z,93099.66
2022-08-03T18:53:19.783Z,93101.16
2022-08-03T18:55:20.751Z,93099.91
2022-08-03T18:56:57.948Z,93103.38
2022-08-03T18:58:39.883Z,93098.59
2022-08-03T19:00:15.976Z,93104.00
2022-08-03T19:01:58.235Z,93094.19
2022-08-03T19:03:42.876Z,93092.59
2022-08-03T19:05:16.204Z,93098.91
2022-08-03T19:06:48.571Z,93102.06
2022-08-03T19:08:25.981Z,93111.53
2022-08-03T19:10:04.548Z,93106.84
2022-08-03T19:12:26.140Z,93110.38
2022-08-03T19:13:57.072Z,93114.63
2022-08-03T19:15:41.544Z,93109.06